createdAt,value
2017-06-10T00:00:33.922Z,0
2017-06-10T00:01:48.561Z,0
2017-06-10T00:02:33.971Z,0
2017-06-10T00:04:33.717Z,0
2017-06-10T00:05:33.740Z,0
2017-06-10T00:06:34.068Z,0
2017-06-10T00:07:34.089Z,0
2017-06-10T00:08:34.122Z,0
2017-06-10T00:09:34.141Z,0
2017-06-10T00:10:48.482Z,0
2017-06-10T00:11:34.190Z,0
2017-06-10T00:12:34.217Z,0
2017-06-10T00:14:33.962Z,0
2017-06-10T00:15:34.293Z,0
2017-06-10T00:16:34.314Z,0
2017-06-10T00:17:34.348Z,0
2017-06-10T00:18:34.366Z,0
2017-06-10T00:19:34.392Z,0
2017-06-10T00:20:34.415Z,0
2017-06-10T00:21:34.491Z,0
2017-06-10T00:22:34.463Z,0
2017-06-10T00:23:34.496Z,0
2017-06-10T00:24:34.516Z,0
2017-06-10T00:25:34.539Z,0
2017-06-10T00:26:34.563Z,0
2017-06-10T00:27:34.616Z,0
2017-06-10T00:28:34.613Z,0
2017-06-10T00:30:49.278Z,0
2017-06-10T00:31:34.400Z,0
2017-06-10T00:32:34.713Z,0
2017-06-10T00:33:49.353Z,0
2017-06-10T00:34:34.812Z,0
2017-06-10T00:35:34.788Z,0
2017-06-10T00:36:34.510Z,0
2017-06-10T00:37:34.534Z,0
2017-06-10T00:38:34.868Z,0
2017-06-10T00:39:49.507Z,0
2017-06-10T00:40:34.910Z,0
2017-06-10T00:41:34.936Z,0
2017-06-10T00:42:49.580Z,0
2017-06-10T00:43:34.988Z,0
2017-06-10T00:44:35.009Z,0
2017-06-10T00:46:34.755Z,0
2017-06-10T00:48:35.187Z,0
2017-06-10T00:49:49.750Z,0
2017-06-10T00:50:34.854Z,0
2017-06-10T00:51:34.877Z,0
2017-06-10T00:52:34.903Z,0
2017-06-10T00:53:35.234Z,0
2017-06-10T00:54:34.950Z,0
2017-06-10T00:55:34.979Z,0
2017-06-10T00:56:35.305Z,0
2017-06-10T00:57:35.330Z,0
2017-06-10T00:58:49.974Z,0
2017-06-10T00:59:35.380Z,0
2017-06-10T01:00:50.021Z,0
2017-06-10T01:02:50.070Z,0
2017-06-10T01:03:35.477Z,0
2017-06-10T01:05:50.143Z,0
2017-06-10T01:06:35.554Z,0
2017-06-10T01:07:35.578Z,0
2017-06-10T01:08:35.602Z,0
2017-06-10T01:09:50.250Z,0
2017-06-10T01:10:35.652Z,0
2017-06-10T01:11:35.678Z,0
2017-06-10T01:12:35.699Z,0
2017-06-10T01:13:35.722Z,0
2017-06-10T01:14:35.750Z,0
2017-06-10T01:15:50.392Z,0
2017-06-10T01:16:35.801Z,0
2017-06-10T01:17:35.823Z,0
2017-06-10T01:18:50.467Z,0
2017-06-10T01:20:35.899Z,0
2017-06-10T01:21:50.539Z,0
2017-06-10T01:22:35.949Z,0
2017-06-10T01:23:35.669Z,0
2017-06-10T01:24:35.998Z,0
2017-06-10T01:25:36.025Z,0
2017-06-10T01:26:36.050Z,0
2017-06-10T01:27:36.069Z,0
2017-06-10T01:28:36.097Z,0
2017-06-10T01:29:50.738Z,0
2017-06-10T01:30:50.763Z,0
2017-06-10T01:31:36.171Z,0
2017-06-10T01:32:36.196Z,0
2017-06-10T01:33:36.224Z,0
2017-06-10T01:34:36.244Z,0
2017-06-10T01:35:36.272Z,0
2017-06-10T01:36:50.911Z,0
2017-06-10T01:37:36.017Z,0
2017-06-10T01:38:36.342Z,0
2017-06-10T01:40:36.394Z,0
2017-06-10T01:41:36.417Z,0
2017-06-10T01:42:36.443Z,0
2017-06-10T01:43:36.464Z,0
2017-06-10T01:44:51.110Z,0
2017-06-10T01:45:36.514Z,0
2017-06-10T01:46:51.157Z,0
2017-06-10T01:47:36.565Z,0
2017-06-10T01:48:36.590Z,0
2017-06-10T01:49:36.311Z,0
2017-06-10T01:50:36.642Z,0
2017-06-10T01:51:36.663Z,0
2017-06-10T01:52:36.692Z,0
2017-06-10T01:54:36.739Z,0
2017-06-10T01:55:36.459Z,0
2017-06-10T01:56:36.483Z,0
2017-06-10T01:57:36.508Z,0
2017-06-10T01:58:36.532Z,0
2017-06-10T01:59:36.252Z,0
2017-06-10T02:00:36.581Z,0
2017-06-10T02:01:36.908Z,0
2017-06-10T02:02:51.550Z,0
2017-06-10T02:03:36.663Z,0
2017-06-10T02:04:36.682Z,0
2017-06-10T02:05:37.009Z,0
2017-06-10T02:06:36.730Z,0
2017-06-10T02:07:36.753Z,0
2017-06-10T02:08:51.698Z,4
2017-06-10T02:09:36.803Z,4
2017-06-10T02:10:36.829Z,4
2017-06-10T02:11:37.153Z,4
2017-06-10T02:12:36.875Z,4
2017-06-10T02:13:37.208Z,4
2017-06-10T02:14:37.228Z,4
2017-06-10T02:15:37.253Z,4
2017-06-10T02:16:37.283Z,4
2017-06-10T02:17:37.011Z,8
2017-06-10T02:18:37.330Z,4
2017-06-10T02:19:37.356Z,8
2017-06-10T02:20:51.995Z,8
2017-06-10T02:21:37.401Z,8
2017-06-10T02:22:52.042Z,8
2017-06-10T02:23:37.452Z,8
2017-06-10T02:24:52.091Z,8
2017-06-10T02:25:37.501Z,8
2017-06-10T02:27:52.171Z,12
2017-06-10T02:28:37.268Z,12
2017-06-10T02:29:37.294Z,12
2017-06-10T02:30:37.016Z,12
2017-06-10T02:31:37.646Z,12
2017-06-10T02:32:37.065Z,16
2017-06-10T02:33:37.400Z,20
2017-06-10T02:34:52.337Z,20
2017-06-10T02:35:37.747Z,20
2017-06-10T02:36:37.771Z,24
2017-06-10T02:37:37.793Z,28
2017-06-10T02:40:52.483Z,32
2017-06-10T02:41:36.983Z,36
2017-06-10T02:42:37.924Z,44
2017-06-10T02:43:37.946Z,44
2017-06-10T02:44:37.967Z,44
2017-06-10T02:45:37.991Z,44
2017-06-10T02:46:37.714Z,52
2017-06-10T02:47:38.045Z,60
2017-06-10T02:48:38.063Z,56
2017-06-10T02:49:52.706Z,60
2017-06-10T02:50:52.431Z,56
2017-06-10T02:51:38.167Z,60
2017-06-10T02:52:38.163Z,56
2017-06-10T02:54:38.214Z,60
2017-06-10T02:55:38.236Z,64
2017-06-10T02:56:52.878Z,68
2017-06-10T02:58:38.311Z,76
2017-06-10T02:59:38.335Z,76
2017-06-10T03:00:38.359Z,76
2017-06-10T03:01:38.389Z,84
2017-06-10T03:02:38.410Z,100
2017-06-10T03:03:38.439Z,112
2017-06-10T03:04:38.154Z,124
2017-06-10T03:05:38.481Z,132
2017-06-10T03:06:38.509Z,108
2017-06-10T03:07:53.149Z,132
2017-06-10T03:08:38.559Z,140
2017-06-10T03:10:38.639Z,140
2017-06-10T03:11:53.251Z,160
2017-06-10T03:12:38.686Z,168
2017-06-10T03:13:38.682Z,196
2017-06-10T03:14:38.705Z,208
2017-06-10T03:15:38.737Z,244
2017-06-10T03:16:38.756Z,296
2017-06-10T03:17:38.780Z,348
2017-06-10T03:18:53.423Z,428
2017-06-10T03:19:38.877Z,496
2017-06-10T03:20:38.852Z,528
2017-06-10T03:21:53.495Z,660
2017-06-10T03:22:53.520Z,824
2017-06-10T03:23:38.930Z,964
2017-06-10T03:24:38.951Z,984
2017-06-10T03:25:38.976Z,1116
2017-06-10T03:26:39.000Z,1308
2017-06-10T03:27:39.025Z,1404
2017-06-10T03:28:39.051Z,1432
2017-06-10T03:29:39.075Z,1476
2017-06-10T03:30:39.100Z,1644
2017-06-10T03:31:38.825Z,1876
2017-06-10T03:32:39.147Z,2016
2017-06-10T03:33:39.175Z,2044
2017-06-10T03:34:39.202Z,2256
2017-06-10T03:35:39.222Z,2392
2017-06-10T03:36:39.246Z,2492
2017-06-10T03:37:39.299Z,2644
2017-06-10T03:38:39.329Z,2732
2017-06-10T03:39:53.937Z,3112
2017-06-10T03:40:53.967Z,3228
2017-06-10T03:41:39.368Z,3328
2017-06-10T03:42:39.397Z,3368
2017-06-10T03:43:54.034Z,3448
2017-06-10T03:44:39.445Z,3600
2017-06-10T03:45:39.470Z,3548
2017-06-10T03:46:39.493Z,3480
2017-06-10T03:47:39.213Z,3676
2017-06-10T03:48:39.543Z,3776
2017-06-10T03:49:39.569Z,3920
2017-06-10T03:50:54.214Z,3980
2017-06-10T03:51:39.620Z,3928
2017-06-10T03:52:39.640Z,4004
2017-06-10T03:53:39.665Z,4044
2017-06-10T03:55:54.332Z,4932
2017-06-10T03:56:39.740Z,4864
2017-06-10T03:57:39.762Z,4652
2017-06-10T03:58:39.787Z,4232
2017-06-10T03:59:54.432Z,3868
2017-06-10T04:00:39.838Z,4020
2017-06-10T04:01:39.893Z,4564
2017-06-10T04:02:39.887Z,4936
2017-06-10T04:03:39.911Z,4816
2017-06-10T04:04:39.934Z,4916
2017-06-10T04:05:39.959Z,6260
2017-06-10T04:06:40.063Z,6452
2017-06-10T04:07:40.006Z,6944
2017-06-10T04:08:40.032Z,12248
2017-06-10T04:09:40.059Z,30816
2017-06-10T04:10:40.085Z,41632
2017-06-10T04:11:40.108Z,42624
2017-06-10T04:12:40.181Z,43648
2017-06-10T04:14:40.187Z,47104
2017-06-10T04:15:54.824Z,45696
2017-06-10T04:16:40.232Z,38144
2017-06-10T04:17:39.956Z,12304
2017-06-10T04:18:39.988Z,10480
2017-06-10T04:19:40.010Z,26464
2017-06-10T04:20:40.339Z,48768
2017-06-10T04:21:40.373Z,48896
2017-06-10T04:22:40.088Z,47968
2017-06-10T04:23:40.423Z,46912
2017-06-10T04:24:55.064Z,55552
2017-06-10T04:25:40.476Z,57344
2017-06-10T04:26:40.503Z,43232
2017-06-10T04:29:55.203Z,60352
2017-06-10T04:30:40.610Z,61472
2017-06-10T04:31:55.260Z,59392
2017-06-10T04:34:40.730Z,63904
2017-06-10T04:35:40.756Z,64704
2017-06-10T04:36:40.789Z,63520
2017-06-10T04:37:40.817Z,63488
2017-06-10T04:38:40.856Z,67360
2017-06-10T04:39:55.195Z,67584
2017-06-10T04:40:40.914Z,66400
2017-06-10T04:41:40.951Z,66144
2017-06-10T04:42:40.979Z,68640
2017-06-10T04:43:41.006Z,68320
2017-06-10T04:44:40.737Z,69344
2017-06-10T04:45:41.090Z,65984
2017-06-10T04:46:55.415Z,64768
2017-06-10T04:47:40.830Z,66048
2017-06-10T04:48:40.861Z,67136
2017-06-10T04:49:41.202Z,71072
2017-06-10T04:50:41.226Z,70688
2017-06-10T04:51:41.290Z,72864
2017-06-10T04:52:41.293Z,71712
2017-06-10T04:53:41.327Z,72320
2017-06-10T04:54:41.360Z,74208
2017-06-10T04:55:41.400Z,75936
2017-06-10T04:56:41.427Z,77600
2017-06-10T04:57:41.459Z,78560
2017-06-10T04:58:56.116Z,78464
2017-06-10T04:59:41.525Z,77728
2017-06-10T05:00:41.566Z,76800
2017-06-10T05:04:41.394Z,81248
2017-06-10T05:05:41.736Z,79744
2017-06-10T05:06:41.767Z,80800
2017-06-10T05:07:41.802Z,79456
2017-06-10T05:08:41.837Z,80832
2017-06-10T05:09:41.872Z,81376
2017-06-10T05:10:41.904Z,81792
2017-06-10T05:11:41.939Z,83680
2017-06-10T05:12:41.974Z,83616
2017-06-10T05:13:42.012Z,83840
2017-06-10T05:14:42.044Z,88160
2017-06-10T05:15:56.702Z,87200
2017-06-10T05:16:42.118Z,85344
2017-06-10T05:17:42.173Z,84928
2017-06-10T05:18:56.809Z,82816
2017-06-10T05:19:42.222Z,84608
2017-06-10T05:20:42.266Z,87584
2017-06-10T05:21:42.298Z,88192
2017-06-10T05:22:42.361Z,89120
2017-06-10T05:23:42.068Z,89472
2017-06-10T05:24:42.409Z,89216
2017-06-10T05:25:42.698Z,90112
2017-06-10T05:26:42.474Z,90560
2017-06-10T05:27:42.517Z,91936
2017-06-10T05:28:42.550Z,90528
2017-06-10T05:29:42.586Z,91744
2017-06-10T05:30:42.324Z,91072
2017-06-10T05:32:57.312Z,92384
2017-06-10T05:33:42.730Z,92064
2017-06-10T05:34:57.386Z,90592
2017-06-10T05:35:42.805Z,87456
2017-06-10T05:36:42.842Z,84864
2017-06-10T05:37:42.877Z,86144
2017-06-10T05:38:42.918Z,89920
2017-06-10T05:39:42.952Z,91328
2017-06-10T05:40:43.008Z,92480
2017-06-10T05:41:43.045Z,92096
2017-06-10T05:43:43.115Z,95584
2017-06-10T05:44:43.137Z,95552
2017-06-10T05:45:43.185Z,93856
2017-06-10T05:46:57.528Z,85376
2017-06-10T05:48:43.285Z,88800
2017-06-10T05:50:57.678Z,95040
2017-06-10T05:51:43.403Z,93632
2017-06-10T05:52:43.437Z,91648
2017-06-10T05:54:43.207Z,91616
2017-06-10T05:55:43.549Z,93248
2017-06-10T05:56:43.592Z,93504
2017-06-10T05:57:43.626Z,94144
2017-06-10T05:58:43.660Z,94752
2017-06-10T05:59:58.320Z,96000
2017-06-10T06:00:43.440Z,97760
2017-06-10T06:01:43.775Z,96320
2017-06-10T06:03:58.471Z,92864
2017-06-10T06:04:43.928Z,94144
2017-06-10T06:05:43.925Z,94528
2017-06-10T06:06:58.586Z,90976
2017-06-10T06:07:44.006Z,90304
2017-06-10T06:08:44.041Z,89376
2017-06-10T06:09:44.081Z,90272
2017-06-10T06:10:44.121Z,91936
2017-06-10T06:11:44.162Z,90688
2017-06-10T06:12:43.591Z,89856
2017-06-10T06:13:43.926Z,89504
2017-06-10T06:14:43.972Z,87168
2017-06-10T06:15:58.625Z,89632
2017-06-10T06:16:44.349Z,90304
2017-06-10T06:17:44.383Z,91264
2017-06-10T06:18:59.042Z,93248
2017-06-10T06:19:44.465Z,92800
2017-06-10T06:20:44.195Z,91648
2017-06-10T06:21:58.856Z,92320
2017-06-10T06:23:44.621Z,90400
2017-06-10T06:24:44.656Z,88736
2017-06-10T06:25:44.697Z,90304
2017-06-10T06:26:44.126Z,85472
2017-06-10T06:27:44.463Z,86080
2017-06-10T06:28:44.807Z,89344
2017-06-10T06:29:44.843Z,88608
2017-06-10T06:30:44.880Z,85888
2017-06-10T06:31:44.920Z,85760
2017-06-10T06:32:44.963Z,85504
2017-06-10T06:34:45.038Z,84544
2017-06-10T06:35:45.076Z,86080
2017-06-10T06:36:45.113Z,82208
2017-06-10T06:37:45.155Z,77600
2017-06-10T06:38:45.191Z,76480
2017-06-10T06:39:45.230Z,78816
2017-06-10T06:40:45.309Z,80736
2017-06-10T06:41:45.311Z,82720
2017-06-10T06:42:45.345Z,83936
2017-06-10T06:43:45.382Z,81344
2017-06-10T06:44:45.438Z,80064
2017-06-10T06:46:00.083Z,83040
2017-06-10T06:47:00.121Z,82368
2017-06-10T06:47:45.236Z,79712
2017-06-10T06:48:45.272Z,81600
2017-06-10T06:50:00.236Z,84896
2017-06-10T06:50:45.670Z,83360
2017-06-10T06:51:45.702Z,78240
2017-06-10T06:52:45.734Z,79456
2017-06-10T06:54:00.389Z,82816
2017-06-10T06:55:45.874Z,78720
2017-06-10T06:56:45.885Z,75072
2017-06-10T06:57:45.922Z,74144
2017-06-10T06:58:45.992Z,76672
2017-06-10T07:00:00.624Z,75424
2017-06-10T07:01:46.080Z,75968
2017-06-10T07:03:00.736Z,77088
2017-06-10T07:03:46.153Z,78144
2017-06-10T07:05:00.812Z,77888
2017-06-10T07:06:46.270Z,75776
2017-06-10T07:08:46.347Z,75232
2017-06-10T07:10:01.012Z,72800
2017-06-10T07:10:46.474Z,70688
2017-06-10T07:11:46.463Z,71168
2017-06-10T07:12:46.501Z,76864
2017-06-10T07:13:46.237Z,76544
2017-06-10T07:14:46.273Z,75040
2017-06-10T07:15:46.620Z,73184
2017-06-10T07:16:46.655Z,70560
2017-06-10T07:17:46.696Z,69184
2017-06-10T07:18:46.429Z,67904
2017-06-10T07:20:01.390Z,70176
2017-06-10T07:20:46.807Z,70112
2017-06-10T07:21:46.542Z,64672
2017-06-10T07:22:46.592Z,62624
2017-06-10T07:24:47.018Z,68384
2017-06-10T07:26:01.618Z,73344
2017-06-10T07:26:47.038Z,71904
2017-06-10T07:27:47.076Z,67200
2017-06-10T07:29:01.741Z,65760
2017-06-10T07:29:46.548Z,67008
2017-06-10T07:30:47.239Z,71840
2017-06-10T07:31:47.226Z,70208
2017-06-10T07:32:47.275Z,68672
2017-06-10T07:33:47.299Z,67392
2017-06-10T07:35:01.961Z,69120
2017-06-10T07:35:47.378Z,68416
2017-06-10T07:37:02.034Z,63200
2017-06-10T07:37:47.453Z,61248
2017-06-10T07:38:47.489Z,41088
2017-06-10T07:39:47.529Z,20544
2017-06-10T07:40:47.565Z,69984
2017-06-10T07:42:02.222Z,65248
2017-06-10T07:43:47.679Z,64224
2017-06-10T07:44:47.762Z,19776
2017-06-10T07:45:47.452Z,21568
2017-06-10T07:46:47.788Z,63520
2017-06-10T07:47:47.823Z,54976
2017-06-10T07:48:47.875Z,12528
2017-06-10T07:49:47.596Z,66624
2017-06-10T07:50:48.006Z,35584
2017-06-10T07:52:48.007Z,65760
2017-06-10T07:53:48.044Z,27808
2017-06-10T07:55:02.705Z,22112
2017-06-10T07:55:48.124Z,12272
2017-06-10T07:57:02.777Z,11916
2017-06-10T07:57:48.189Z,10032
2017-06-10T07:58:47.927Z,8384
2017-06-10T07:59:48.265Z,65504
2017-06-10T08:00:47.995Z,61120
2017-06-10T08:01:48.334Z,60448
2017-06-10T08:02:48.368Z,63616
2017-06-10T08:03:48.407Z,62592
2017-06-10T08:04:48.441Z,30400
2017-06-10T08:06:03.098Z,61376
2017-06-10T08:06:48.511Z,56128
2017-06-10T08:08:03.170Z,34816
2017-06-10T08:09:03.206Z,25120
2017-06-10T08:09:48.622Z,23584
2017-06-10T08:10:48.658Z,23008
2017-06-10T08:11:48.388Z,14976
2017-06-10T08:12:48.729Z,22784
2017-06-10T08:13:48.767Z,22400
2017-06-10T08:14:48.501Z,22080
2017-06-10T08:15:48.837Z,22208
2017-06-10T08:16:48.874Z,22720
2017-06-10T08:17:48.907Z,21344
2017-06-10T08:19:03.567Z,22400
2017-06-10T08:19:48.980Z,22016
2017-06-10T08:20:49.021Z,10860
2017-06-10T08:21:49.050Z,11204
2017-06-10T08:22:49.101Z,11632
2017-06-10T08:23:49.153Z,12392
2017-06-10T08:24:49.163Z,13408
2017-06-10T08:26:03.815Z,22208
2017-06-10T08:26:49.235Z,23808
2017-06-10T08:27:49.264Z,12960
2017-06-10T08:29:03.921Z,11700
2017-06-10T08:29:49.343Z,21312
2017-06-10T08:30:49.118Z,11468
2017-06-10T08:31:49.415Z,10084
2017-06-10T08:32:49.441Z,9596
2017-06-10T08:33:49.485Z,9048
2017-06-10T08:35:49.547Z,8080
2017-06-10T08:36:49.581Z,7868
2017-06-10T08:37:49.006Z,7980
2017-06-10T08:38:49.649Z,8776
2017-06-10T08:40:04.299Z,18080
2017-06-10T08:41:04.336Z,11344
2017-06-10T08:41:49.749Z,10836
2017-06-10T08:42:49.782Z,15828
2017-06-10T08:43:49.816Z,16312
2017-06-10T08:45:04.470Z,21376
2017-06-10T08:45:49.912Z,21440
2017-06-10T08:46:49.921Z,21344
2017-06-10T08:47:49.951Z,11868
2017-06-10T08:48:49.983Z,21280
2017-06-10T08:49:50.016Z,21952
2017-06-10T08:50:50.050Z,21536
2017-06-10T08:52:04.705Z,20608
2017-06-10T08:52:50.122Z,19840
2017-06-10T08:53:50.150Z,19200
2017-06-10T08:55:04.835Z,8560
2017-06-10T08:56:50.253Z,8588
2017-06-10T08:57:50.296Z,9036
2017-06-10T08:58:50.338Z,9688
2017-06-10T08:59:50.366Z,10516
2017-06-10T09:01:05.012Z,20512
2017-06-10T09:01:50.440Z,20576
2017-06-10T09:02:50.471Z,20800
2017-06-10T09:03:50.489Z,20512
2017-06-10T09:04:50.522Z,20224
2017-06-10T09:05:50.555Z,12232
2017-06-10T09:06:50.601Z,9684
2017-06-10T09:07:50.674Z,9704
2017-06-10T09:08:50.658Z,9876
2017-06-10T09:09:50.694Z,9664
2017-06-10T09:11:05.344Z,20096
2017-06-10T09:11:50.757Z,20000
2017-06-10T09:13:05.410Z,19968
2017-06-10T09:14:05.449Z,19936
2017-06-10T09:14:50.859Z,19936
2017-06-10T09:15:50.892Z,19648
2017-06-10T09:17:05.544Z,18368
2017-06-10T09:17:50.958Z,9412
2017-06-10T09:18:50.994Z,8948
2017-06-10T09:19:51.027Z,9216
2017-06-10T09:20:50.756Z,8820
2017-06-10T09:21:51.098Z,8752
2017-06-10T09:22:51.128Z,8540
2017-06-10T09:23:51.166Z,8456
2017-06-10T09:24:51.192Z,8136
2017-06-10T09:25:51.278Z,7876
2017-06-10T09:26:51.256Z,7892
2017-06-10T09:28:05.911Z,8564
2017-06-10T09:28:51.323Z,8944
2017-06-10T09:29:51.358Z,18368
2017-06-10T09:30:51.392Z,18752
2017-06-10T09:32:05.737Z,19168
2017-06-10T09:33:51.485Z,19008
2017-06-10T09:34:51.519Z,19232
2017-06-10T09:35:51.552Z,19360
2017-06-10T09:36:51.586Z,19072
2017-06-10T09:37:51.619Z,10984
2017-06-10T09:38:51.651Z,10692
2017-06-10T09:39:51.684Z,10136
2017-06-10T09:40:51.712Z,17792
2017-06-10T09:41:51.138Z,17120
2017-06-10T09:42:51.778Z,17024
2017-06-10T09:43:51.810Z,16928
2017-06-10T09:45:06.464Z,16864
2017-06-10T09:45:51.876Z,8604
2017-06-10T09:46:51.609Z,8396
2017-06-10T09:47:51.943Z,8212
2017-06-10T09:48:51.677Z,8408
2017-06-10T09:49:51.708Z,16992
2017-06-10T09:50:52.042Z,8544
2017-06-10T09:51:52.074Z,8520
2017-06-10T09:52:52.109Z,12920
2017-06-10T09:53:51.835Z,7880
2017-06-10T09:55:06.489Z,7408
2017-06-10T09:55:51.901Z,7264
2017-06-10T09:56:52.236Z,7240
2017-06-10T09:57:52.270Z,7508
2017-06-10T09:58:52.302Z,7532
2017-06-10T09:59:52.342Z,7260
2017-06-10T10:00:52.368Z,15084
2017-06-10T10:01:52.400Z,15440
2017-06-10T10:02:52.428Z,16164
2017-06-10T10:04:06.778Z,16512
2017-06-10T10:04:52.497Z,16896
2017-06-10T10:05:52.522Z,9432
2017-06-10T10:06:52.560Z,8676
2017-06-10T10:07:52.286Z,8072
2017-06-10T10:08:52.617Z,7692
2017-06-10T10:09:52.655Z,7328
2017-06-10T10:10:52.683Z,12120
2017-06-10T10:11:52.714Z,14376
2017-06-10T10:12:52.746Z,6832
2017-06-10T10:13:52.777Z,6924
2017-06-10T10:14:52.810Z,14684
2017-06-10T10:17:07.521Z,15468
2017-06-10T10:18:07.524Z,15944
2017-06-10T10:20:07.595Z,15152
2017-06-10T10:21:53.039Z,14744
2017-06-10T10:22:53.066Z,14772
2017-06-10T10:23:53.146Z,14648
2017-06-10T10:24:52.826Z,14768
2017-06-10T10:26:07.784Z,14872
2017-06-10T10:26:53.193Z,14976
2017-06-10T10:27:53.254Z,15204
2017-06-10T10:28:53.257Z,15428
2017-06-10T10:29:53.296Z,15772
2017-06-10T10:30:53.322Z,9144
2017-06-10T10:31:53.358Z,8848
2017-06-10T10:32:53.387Z,8680
2017-06-10T10:33:53.422Z,8616
2017-06-10T10:34:52.845Z,15392
2017-06-10T10:36:07.822Z,9616
2017-06-10T10:36:53.213Z,9184
2017-06-10T10:37:53.554Z,8928
2017-06-10T10:38:53.581Z,15564
2017-06-10T10:39:53.613Z,11576
2017-06-10T10:40:53.344Z,15256
2017-06-10T10:41:53.682Z,14600
2017-06-10T10:42:53.409Z,14396
2017-06-10T10:43:53.742Z,9224
2017-06-10T10:44:53.774Z,7324
2017-06-10T10:45:53.806Z,7132
2017-06-10T10:46:53.838Z,11212
2017-06-10T10:48:08.184Z,6888
2017-06-10T10:48:53.625Z,6824
2017-06-10T10:49:53.937Z,6852
2017-06-10T10:52:08.613Z,10936
2017-06-10T10:52:53.725Z,12260
2017-06-10T10:53:53.760Z,11924
2017-06-10T10:54:54.141Z,11700
2017-06-10T10:55:54.122Z,11472
2017-06-10T10:56:54.152Z,11520
2017-06-10T10:57:54.186Z,11680
2017-06-10T10:58:54.220Z,11564
2017-06-10T10:59:54.245Z,11376
2017-06-10T11:00:54.286Z,11240
2017-06-10T11:01:54.307Z,11100
2017-06-10T11:03:08.958Z,5000
2017-06-10T11:03:54.066Z,10960
2017-06-10T11:04:54.098Z,11028
2017-06-10T11:05:54.129Z,11144
2017-06-10T11:07:09.087Z,11388
2017-06-10T11:07:53.887Z,11372
2017-06-10T11:08:54.528Z,11684
2017-06-10T11:09:54.558Z,11708
2017-06-10T11:10:54.590Z,11676
2017-06-10T11:11:54.619Z,11800
2017-06-10T11:12:54.345Z,6396
2017-06-10T11:13:54.681Z,9620
2017-06-10T11:15:09.348Z,11524
2017-06-10T11:15:54.742Z,11236
2017-06-10T11:16:54.776Z,10748
2017-06-10T11:17:54.804Z,5676
2017-06-10T11:18:54.832Z,10236
2017-06-10T11:19:54.866Z,10288
2017-06-10T11:21:54.924Z,5688
2017-06-10T11:22:54.962Z,6056
2017-06-10T11:24:55.017Z,5752
2017-06-10T11:25:54.748Z,9904
2017-06-10T11:26:55.081Z,6628
2017-06-10T11:27:55.110Z,6376
2017-06-10T11:28:55.143Z,10196
2017-06-10T11:29:55.170Z,7788
2017-06-10T11:30:55.200Z,9976
2017-06-10T11:32:09.851Z,9876
2017-06-10T11:32:55.261Z,9560
2017-06-10T11:33:55.290Z,9280
2017-06-10T11:34:55.333Z,6604
2017-06-10T11:35:55.047Z,9200
2017-06-10T11:36:55.082Z,7580
2017-06-10T11:37:55.424Z,6636
2017-06-10T11:39:10.062Z,6036
2017-06-10T11:39:55.475Z,6292
2017-06-10T11:40:55.201Z,9872
2017-06-10T11:41:55.230Z,7504
2017-06-10T11:42:55.567Z,7820
2017-06-10T11:43:55.596Z,6680
2017-06-10T11:44:55.322Z,6476
2017-06-10T11:46:10.276Z,6588
2017-06-10T11:46:55.686Z,6884
2017-06-10T11:47:55.718Z,8404
2017-06-10T11:48:55.744Z,8028
2017-06-10T11:50:55.804Z,8448
2017-06-10T11:52:10.149Z,8300
2017-06-10T11:52:55.863Z,8504
2017-06-10T11:55:10.550Z,8380
2017-06-10T11:55:55.955Z,8220
2017-06-10T11:56:55.681Z,8036
2017-06-10T11:57:56.013Z,8108
2017-06-10T11:58:56.046Z,8220
2017-06-10T11:59:56.072Z,8324
2017-06-10T12:00:55.800Z,10796
2017-06-10T12:01:55.830Z,10912
2017-06-10T12:02:56.167Z,10816
2017-06-10T12:03:56.192Z,10736
2017-06-10T12:05:56.252Z,10280
2017-06-10T12:06:55.983Z,9780
2017-06-10T12:07:56.313Z,7604
2017-06-10T12:08:56.344Z,6728
2017-06-10T12:09:56.376Z,6424
2017-06-10T12:11:11.075Z,8720
2017-06-10T12:11:56.461Z,8664
2017-06-10T12:12:56.164Z,8564
2017-06-10T12:13:56.494Z,8584
2017-06-10T12:14:56.523Z,8724
2017-06-10T12:15:56.555Z,8940
2017-06-10T12:17:11.205Z,9120
2017-06-10T12:17:56.613Z,8480
2017-06-10T12:18:56.643Z,6976
2017-06-10T12:20:11.019Z,6872
2017-06-10T12:20:56.703Z,6896
2017-06-10T12:21:56.760Z,7312
2017-06-10T12:23:11.390Z,9532
2017-06-10T12:24:56.829Z,9644
2017-06-10T12:25:56.857Z,7816
2017-06-10T12:27:11.199Z,7456
2017-06-10T12:27:56.912Z,7612
2017-06-10T12:28:56.947Z,7072
2017-06-10T12:29:56.971Z,6972
2017-06-10T12:30:57.002Z,7528
2017-06-10T12:31:57.034Z,7152
2017-06-10T12:32:57.064Z,9312
2017-06-10T12:33:57.091Z,9284
2017-06-10T12:34:57.123Z,9204
2017-06-10T12:35:57.149Z,9088
2017-06-10T12:36:56.877Z,8880
2017-06-10T12:38:11.827Z,8764
2017-06-10T12:38:57.239Z,8728
2017-06-10T12:40:11.584Z,8892
2017-06-10T12:40:57.307Z,8948
2017-06-10T12:42:11.648Z,6300
2017-06-10T12:42:57.360Z,6992
2017-06-10T12:43:57.438Z,8808
2017-06-10T12:44:57.421Z,8736
2017-06-10T12:45:57.147Z,6116
2017-06-10T12:47:12.100Z,7140
2017-06-10T12:47:57.512Z,6744
2017-06-10T12:48:57.247Z,8216
2017-06-10T12:49:57.604Z,8252
2017-06-10T12:50:57.594Z,8288
2017-06-10T12:51:57.625Z,8408
2017-06-10T12:52:57.354Z,8548
2017-06-10T12:53:57.383Z,8320
2017-06-10T12:55:57.765Z,7940
2017-06-10T12:56:57.778Z,7832
2017-06-10T12:58:57.833Z,7472
2017-06-10T12:59:57.863Z,7864
2017-06-10T13:01:12.516Z,8076
2017-06-10T13:01:57.922Z,8092
2017-06-10T13:02:57.952Z,8016
2017-06-10T13:03:57.979Z,8040
2017-06-10T13:04:58.012Z,5760
2017-06-10T13:05:58.141Z,8124
2017-06-10T13:07:12.690Z,8128
2017-06-10T13:07:58.100Z,8096
2017-06-10T13:08:58.133Z,7960
2017-06-10T13:09:58.157Z,7844
2017-06-10T13:11:12.807Z,7904
2017-06-10T13:11:58.220Z,6044
2017-06-10T13:12:58.248Z,5504
2017-06-10T13:14:12.593Z,5096
2017-06-10T13:14:58.309Z,5172
2017-06-10T13:15:58.340Z,7004
2017-06-10T13:16:58.366Z,5560
2017-06-10T13:17:58.397Z,6000
2017-06-10T13:18:58.425Z,6168
2017-06-10T13:19:58.465Z,6464
2017-06-10T13:20:58.485Z,6256
2017-06-10T13:21:58.821Z,6152
2017-06-10T13:23:13.165Z,6088
2017-06-10T13:24:13.193Z,6008
2017-06-10T13:24:58.603Z,6032
2017-06-10T13:26:13.254Z,6160
2017-06-10T13:27:58.691Z,6584
2017-06-10T13:28:58.726Z,6796
2017-06-10T13:30:13.066Z,7000
2017-06-10T13:30:58.789Z,7116
2017-06-10T13:31:58.811Z,7268
2017-06-10T13:32:58.841Z,7388
2017-06-10T13:33:58.871Z,7400
2017-06-10T13:34:58.903Z,7196
2017-06-10T13:35:58.929Z,7080
2017-06-10T13:36:58.957Z,6976
2017-06-10T13:37:58.986Z,6960
2017-06-10T13:39:13.635Z,6916
2017-06-10T13:39:59.072Z,6780
2017-06-10T13:41:13.696Z,6556
2017-06-10T13:43:13.751Z,6300
2017-06-10T13:43:59.165Z,6268
2017-06-10T13:44:59.192Z,6292
2017-06-10T13:46:13.841Z,6336
2017-06-10T13:47:59.280Z,6388
2017-06-10T13:48:59.308Z,6436
2017-06-10T13:49:59.335Z,6512
2017-06-10T13:50:59.364Z,6576
2017-06-10T13:51:59.394Z,6652
2017-06-10T13:52:59.120Z,6804
2017-06-10T13:53:59.454Z,7028
2017-06-10T13:54:59.481Z,7196
2017-06-10T13:55:59.208Z,7336
2017-06-10T13:56:59.241Z,7492
2017-06-10T13:58:14.193Z,7380
2017-06-10T13:59:59.631Z,7292
2017-06-10T14:00:59.655Z,7324
2017-06-10T14:02:14.003Z,9764
2017-06-10T14:02:59.413Z,9792
2017-06-10T14:03:59.742Z,6928
2017-06-10T14:04:59.772Z,6888
2017-06-10T14:05:59.498Z,6768
2017-06-10T14:06:59.831Z,6708
2017-06-10T14:07:59.866Z,6724
2017-06-10T14:08:59.886Z,8144
2017-06-10T14:09:59.919Z,7484
2017-06-10T14:10:59.947Z,6588
2017-06-10T14:11:59.976Z,9064
2017-06-10T14:13:14.623Z,9044
2017-06-10T14:14:00.033Z,9136
2017-06-10T14:15:14.681Z,9036
2017-06-10T14:17:14.741Z,8932
2017-06-10T14:18:00.153Z,8876
2017-06-10T14:19:00.188Z,8732
2017-06-10T14:20:00.212Z,8464
2017-06-10T14:21:00.238Z,8188
2017-06-10T14:22:00.266Z,8012
2017-06-10T14:22:59.993Z,7896
2017-06-10T14:24:00.327Z,7096